sensor_id;sensor_type;location;lat;lon;timestamp;temperature;humidity
13074;DHT22;6603;47.066;15.396;2023-03-01T00:00:22;2.00;1.00
13074;DHT22;6603;47.066;15.396;2023-03-01T00:02:48;2.00;1.00
13074;DHT22;6603;47.066;15.396;2023-03-01T00:05:14;2.00;1.00
13074;DHT22;6603;47.066;15.396;2023-03-01T00:07:40;2.10;1.00
13074;DHT22;6603;47.066;15.396;2023-03-01T00:10:06;2.10;99.90
13074;DHT22;6603;47.066;15.396;2023-03-01T00:12:33;1.90;99.90
13074;DHT22;6603;47.066;15.396;2023-03-01T00:14:59;2.00;16.00
13074;DHT22;6603;47.066;15.396;2023-03-01T00:17:25;1.90;99.90
13074;DHT22;6603;47.066;15.396;2023-03-01T00:19:51;1.80;1.00
13074;DHT22;6603;47.066;15.396;2023-03-01T00:22:16;1.80;1.00
13074;DHT22;6603;47.066;15.396;2023-03-01T00:24:42;1.70;1.00
13074;DHT22;6603;47.066;15.396;2023-03-01T00:27:08;1.90;1.00
13074;DHT22;6603;47.066;15.396;2023-03-01T00:29:34;1.90;99.90
13074;DHT22;6603;47.066;15.396;2023-03-01T00:32:00;1.90;1.00
13074;DHT22;6603;47.066;15.396;2023-03-01T00:34:26;2.00;1.00
13074;DHT22;6603;47.066;15.396;2023-03-01T00:36:52;2.00;1.00
13074;DHT22;6603;47.066;15.396;2023-03-01T00:39:18;2.00;1.00
13074;DHT22;6603;47.066;15.396;2023-03-01T00:41:44;1.80;1.00
13074;DHT22;6603;47.066;15.396;2023-03-01T00:44:10;1.90;1.00
13074;DHT22;6603;47.066;15.396;2023-03-01T00:46:36;1.90;1.00
13074;DHT22;6603;47.066;15.396;2023-03-01T00:49:03;1.90;47.80
13074;DHT22;6603;47.066;15.396;2023-03-01T00:51:30;1.80;99.90
13074;DHT22;6603;47.066;15.396;2023-03-01T00:53:59;1.90;1.00
13074;DHT22;6603;47.066;15.396;2023-03-01T00:56:26;1.90;99.90
13074;DHT22;6603;47.066;15.396;2023-03-01T00:58:53;1.90;99.90
13074;DHT22;6603;47.066;15.396;2023-03-01T01:01:23;1.90;66.90
13074;DHT22;6603;47.066;15.396;2023-03-01T01:03:55;1.90;1.00
13074;DHT22;6603;47.066;15.396;2023-03-01T01:06:27;1.90;1.00
13074;DHT22;6603;47.066;15.396;2023-03-01T01:08:55;1.90;40.20
13074;DHT22;6603;47.066;15.396;2023-03-01T01:11:23;1.90;1.00
13074;DHT22;6603;47.066;15.396;2023-03-01T01:13:50;1.80;1.00
13074;DHT22;6603;47.066;15.396;2023-03-01T01:16:18;1.80;4.70
13074;DHT22;6603;47.066;15.396;2023-03-01T01:18:45;1.90;1.00
13074;DHT22;6603;47.066;15.396;2023-03-01T01:21:13;1.90;1.00
13074;DHT22;6603;47.066;15.396;2023-03-01T01:23:41;2.00;99.90
13074;DHT22;6603;47.066;15.396;2023-03-01T01:26:10;1.90;16.80
13074;DHT22;6603;47.066;15.396;2023-03-01T01:28:37;1.90;1.00
13074;DHT22;6603;47.066;15.396;2023-03-01T01:31:03;1.90;67.30
13074;DHT22;6603;47.066;15.396;2023-03-01T01:33:29;1.90;99.90
13074;DHT22;6603;47.066;15.396;2023-03-01T01:35:56;1.90;99.90
13074;DHT22;6603;47.066;15.396;2023-03-01T01:38:22;1.90;99.90
13074;DHT22;6603;47.066;15.396;2023-03-01T01:40:49;1.80;48.20
13074;DHT22;6603;47.066;15.396;2023-03-01T01:43:25;1.90;96.00
13074;DHT22;6603;47.066;15.396;2023-03-01T01:45:55;1.90;99.90
13074;DHT22;6603;47.066;15.396;2023-03-01T01:48:28;1.80;99.90
13074;DHT22;6603;47.066;15.396;2023-03-01T01:51:08;1.80;1.00
13074;DHT22;6603;47.066;15.396;2023-03-01T01:53:35;1.90;1.00
13074;DHT22;6603;47.066;15.396;2023-03-01T01:56:03;1.80;1.00
13074;DHT22;6603;47.066;15.396;2023-03-01T01:58:31;1.90;99.90
13074;DHT22;6603;47.066;15.396;2023-03-01T02:00:57;2.00;99.90
13074;DHT22;6603;47.066;15.396;2023-03-01T02:03:29;2.20;1.00
13074;DHT22;6603;47.066;15.396;2023-03-01T02:08:44;2.20;1.00
13074;DHT22;6603;47.066;15.396;2023-03-01T02:11:12;2.10;1.00
13074;DHT22;6603;47.066;15.396;2023-03-01T02:13:40;2.00;99.90
13074;DHT22;6603;47.066;15.396;2023-03-01T02:16:12;2.00;1.00
13074;DHT22;6603;47.066;15.396;2023-03-01T02:18:41;2.00;1.00
13074;DHT22;6603;47.066;15.396;2023-03-01T02:24:25;1.90;99.90
13074;DHT22;6603;47.066;15.396;2023-03-01T02:26:54;1.90;99.90
13074;DHT22;6603;47.066;15.396;2023-03-01T02:29:23;1.80;99.90
13074;DHT22;6603;47.066;15.396;2023-03-01T02:31:51;1.80;99.90
13074;DHT22;6603;47.066;15.396;2023-03-01T02:34:22;1.80;99.90
13074;DHT22;6603;47.066;15.396;2023-03-01T02:36:58;1.80;99.90
13074;DHT22;6603;47.066;15.396;2023-03-01T02:39:30;1.90;99.90
13074;DHT22;6603;47.066;15.396;2023-03-01T02:41:57;1.80;99.90
13074;DHT22;6603;47.066;15.396;2023-03-01T02:44:24;1.80;99.90
13074;DHT22;6603;47.066;15.396;2023-03-01T03:06:35;2.10;1.00
13074;DHT22;6603;47.066;15.396;2023-03-01T03:09:02;2.00;1.00
13074;DHT22;6603;47.066;15.396;2023-03-01T03:11:28;2.00;1.00
13074;DHT22;6603;47.066;15.396;2023-03-01T03:13:54;2.00;1.00
13074;DHT22;6603;47.066;15.396;2023-03-01T03:16:21;1.80;1.00
13074;DHT22;6603;47.066;15.396;2023-03-01T03:18:49;1.80;1.00
13074;DHT22;6603;47.066;15.396;2023-03-01T03:21:15;2.00;1.00
13074;DHT22;6603;47.066;15.396;2023-03-01T03:23:42;1.90;1.00
13074;DHT22;6603;47.066;15.396;2023-03-01T03:26:08;1.90;1.00
13074;DHT22;6603;47.066;15.396;2023-03-01T03:28:35;2.10;1.00
13074;DHT22;6603;47.066;15.396;2023-03-01T03:31:07;2.00;1.00
13074;DHT22;6603;47.066;15.396;2023-03-01T03:33:33;2.10;1.00
13074;DHT22;6603;47.066;15.396;2023-03-01T03:35:59;2.10;1.00
13074;DHT22;6603;47.066;15.396;2023-03-01T03:38:25;2.10;1.00
13074;DHT22;6603;47.066;15.396;2023-03-01T03:41:04;2.20;1.00
13074;DHT22;6603;47.066;15.396;2023-03-01T03:43:33;2.20;1.00
13074;DHT22;6603;47.066;15.396;2023-03-01T03:46:00;2.00;1.00
13074;DHT22;6603;47.066;15.396;2023-03-01T03:48:26;1.90;1.00
13074;DHT22;6603;47.066;15.396;2023-03-01T03:50:56;1.90;1.00
13074;DHT22;6603;47.066;15.396;2023-03-01T03:53:24;1.90;1.00
13074;DHT22;6603;47.066;15.396;2023-03-01T03:55:51;1.90;1.00
13074;DHT22;6603;47.066;15.396;2023-03-01T03:58:19;1.90;1.00
13074;DHT22;6603;47.066;15.396;2023-03-01T04:00:46;2.00;1.00
13074;DHT22;6603;47.066;15.396;2023-03-01T04:03:14;2.10;1.00
13074;DHT22;6603;47.066;15.396;2023-03-01T04:05:41;2.10;1.00
13074;DHT22;6603;47.066;15.396;2023-03-01T04:08:08;2.00;1.00
13074;DHT22;6603;47.066;15.396;2023-03-01T04:10:37;2.00;1.00
13074;DHT22;6603;47.066;15.396;2023-03-01T04:13:07;2.00;1.00
13074;DHT22;6603;47.066;15.396;2023-03-01T04:15:34;2.00;1.00
13074;DHT22;6603;47.066;15.396;2023-03-01T04:18:00;2.00;1.00
13074;DHT22;6603;47.066;15.396;2023-03-01T04:20:29;2.10;1.00
13074;DHT22;6603;47.066;15.396;2023-03-01T04:23:00;1.90;1.00
13074;DHT22;6603;47.066;15.396;2023-03-01T04:25:40;1.80;1.00
13074;DHT22;6603;47.066;15.396;2023-03-01T04:28:08;1.80;1.00
13074;DHT22;6603;47.066;15.396;2023-03-01T04:30:35;1.80;1.00
13074;DHT22;6603;47.066;15.396;2023-03-01T04:33:03;1.90;1.00
13074;DHT22;6603;47.066;15.396;2023-03-01T04:35:30;1.90;1.00
13074;DHT22;6603;47.066;15.396;2023-03-01T04:37:56;1.90;1.00
13074;DHT22;6603;47.066;15.396;2023-03-01T04:40:22;2.00;1.00
13074;DHT22;6603;47.066;15.396;2023-03-01T04:42:49;2.00;1.00
13074;DHT22;6603;47.066;15.396;2023-03-01T04:45:15;1.90;1.00
13074;DHT22;6603;47.066;15.396;2023-03-01T04:47:42;2.00;1.00
13074;DHT22;6603;47.066;15.396;2023-03-01T04:50:12;2.00;1.00
13074;DHT22;6603;47.066;15.396;2023-03-01T04:52:38;2.10;1.00
13074;DHT22;6603;47.066;15.396;2023-03-01T04:55:05;2.00;1.00
13074;DHT22;6603;47.066;15.396;2023-03-01T04:57:31;2.00;1.00
13074;DHT22;6603;47.066;15.396;2023-03-01T04:59:58;2.10;1.00
13074;DHT22;6603;47.066;15.396;2023-03-01T05:02:24;2.00;1.00
13074;DHT22;6603;47.066;15.396;2023-03-01T05:04:50;1.90;1.00
13074;DHT22;6603;47.066;15.396;2023-03-01T05:07:16;1.90;1.00
13074;DHT22;6603;47.066;15.396;2023-03-01T05:09:48;1.90;1.00
13074;DHT22;6603;47.066;15.396;2023-03-01T05:12:14;1.90;1.00
13074;DHT22;6603;47.066;15.396;2023-03-01T05:14:41;1.80;1.00
13074;DHT22;6603;47.066;15.396;2023-03-01T05:17:08;1.80;1.00
13074;DHT22;6603;47.066;15.396;2023-03-01T05:19:34;1.80;1.00
13074;DHT22;6603;47.066;15.396;2023-03-01T05:22:00;1.90;1.00
13074;DHT22;6603;47.066;15.396;2023-03-01T05:24:35;1.90;1.00
13074;DHT22;6603;47.066;15.396;2023-03-01T05:27:02;1.90;1.00
13074;DHT22;6603;47.066;15.396;2023-03-01T05:29:31;1.90;1.00
13074;DHT22;6603;47.066;15.396;2023-03-01T05:32:02;1.80;1.00
13074;DHT22;6603;47.066;15.396;2023-03-01T05:34:31;1.80;1.00
13074;DHT22;6603;47.066;15.396;2023-03-01T05:36:57;1.80;1.00
13074;DHT22;6603;47.066;15.396;2023-03-01T05:39:25;1.80;1.00
13074;DHT22;6603;47.066;15.396;2023-03-01T05:41:56;1.90;1.00
13074;DHT22;6603;47.066;15.396;2023-03-01T05:44:23;2.00;1.00
13074;DHT22;6603;47.066;15.396;2023-03-01T05:46:50;2.10;1.00
13074;DHT22;6603;47.066;15.396;2023-03-01T05:49:17;1.80;1.00
13074;DHT22;6603;47.066;15.396;2023-03-01T05:51:48;1.80;1.00
13074;DHT22;6603;47.066;15.396;2023-03-01T05:54:15;2.00;1.00
13074;DHT22;6603;47.066;15.396;2023-03-01T05:56:42;2.00;1.00
13074;DHT22;6603;47.066;15.396;2023-03-01T05:59:08;2.00;1.00
13074;DHT22;6603;47.066;15.396;2023-03-01T06:01:34;2.00;1.00
13074;DHT22;6603;47.066;15.396;2023-03-01T06:04:01;2.10;1.00
13074;DHT22;6603;47.066;15.396;2023-03-01T06:06:27;1.90;1.00
13074;DHT22;6603;47.066;15.396;2023-03-01T06:08:53;2.00;1.00
13074;DHT22;6603;47.066;15.396;2023-03-01T06:11:20;2.00;1.00
13074;DHT22;6603;47.066;15.396;2023-03-01T06:13:46;1.90;1.00
13074;DHT22;6603;47.066;15.396;2023-03-01T06:16:13;2.10;1.00
13074;DHT22;6603;47.066;15.396;2023-03-01T06:18:39;2.10;1.00
13074;DHT22;6603;47.066;15.396;2023-03-01T06:21:05;2.10;1.00
13074;DHT22;6603;47.066;15.396;2023-03-01T06:23:32;2.10;1.00
13074;DHT22;6603;47.066;15.396;2023-03-01T06:25:58;2.00;1.00
13074;DHT22;6603;47.066;15.396;2023-03-01T06:28:24;2.10;1.00
13074;DHT22;6603;47.066;15.396;2023-03-01T06:30:50;2.10;1.00
13074;DHT22;6603;47.066;15.396;2023-03-01T06:33:17;2.10;1.00
13074;DHT22;6603;47.066;15.396;2023-03-01T06:35:46;2.20;1.00
13074;DHT22;6603;47.066;15.396;2023-03-01T06:38:13;2.20;1.00
13074;DHT22;6603;47.066;15.396;2023-03-01T06:40:40;2.30;1.00
13074;DHT22;6603;47.066;15.396;2023-03-01T06:43:07;2.40;1.00
13074;DHT22;6603;47.066;15.396;2023-03-01T06:45:33;2.50;1.00
13074;DHT22;6603;47.066;15.396;2023-03-01T06:48:04;2.40;1.00
13074;DHT22;6603;47.066;15.396;2023-03-01T06:50:31;2.30;1.00
13074;DHT22;6603;47.066;15.396;2023-03-01T06:52:57;2.20;1.00
13074;DHT22;6603;47.066;15.396;2023-03-01T06:55:24;2.30;1.00
13074;DHT22;6603;47.066;15.396;2023-03-01T06:58:00;2.30;1.00
13074;DHT22;6603;47.066;15.396;2023-03-01T07:00:27;2.20;1.00
13074;DHT22;6603;47.066;15.396;2023-03-01T07:02:54;2.40;1.00
13074;DHT22;6603;47.066;15.396;2023-03-01T07:05:21;2.50;1.00
13074;DHT22;6603;47.066;15.396;2023-03-01T07:07:46;2.50;1.00
13074;DHT22;6603;47.066;15.396;2023-03-01T07:10:12;2.40;1.00
13074;DHT22;6603;47.066;15.396;2023-03-01T07:12:38;2.40;1.00
13074;DHT22;6603;47.066;15.396;2023-03-01T07:15:05;2.40;99.90
13074;DHT22;6603;47.066;15.396;2023-03-01T07:17:31;2.60;1.00
13074;DHT22;6603;47.066;15.396;2023-03-01T07:19:57;2.50;1.00
13074;DHT22;6603;47.066;15.396;2023-03-01T07:22:23;2.60;1.00
13074;DHT22;6603;47.066;15.396;2023-03-01T07:24:49;2.60;1.00
13074;DHT22;6603;47.066;15.396;2023-03-01T07:27:15;2.70;1.00
13074;DHT22;6603;47.066;15.396;2023-03-01T07:29:40;2.70;1.00
13074;DHT22;6603;47.066;15.396;2023-03-01T07:32:06;2.70;99.90
13074;DHT22;6603;47.066;15.396;2023-03-01T07:34:33;2.70;1.00
13074;DHT22;6603;47.066;15.396;2023-03-01T07:36:59;2.70;99.90
13074;DHT22;6603;47.066;15.396;2023-03-01T07:39:25;2.80;86.10
13074;DHT22;6603;47.066;15.396;2023-03-01T07:41:51;2.80;1.00
13074;DHT22;6603;47.066;15.396;2023-03-01T07:44:17;2.80;1.00
13074;DHT22;6603;47.066;15.396;2023-03-01T07:46:43;2.70;1.00
13074;DHT22;6603;47.066;15.396;2023-03-01T07:49:10;2.80;1.00
13074;DHT22;6603;47.066;15.396;2023-03-01T07:51:35;2.80;1.00
13074;DHT22;6603;47.066;15.396;2023-03-01T07:54:02;2.80;91.80
13074;DHT22;6603;47.066;15.396;2023-03-01T07:56:28;2.90;99.90
13074;DHT22;6603;47.066;15.396;2023-03-01T07:58:54;2.80;1.00
13074;DHT22;6603;47.066;15.396;2023-03-01T08:01:22;2.80;1.00
13074;DHT22;6603;47.066;15.396;2023-03-01T08:03:49;2.70;95.10
13074;DHT22;6603;47.066;15.396;2023-03-01T08:06:16;2.80;99.90
13074;DHT22;6603;47.066;15.396;2023-03-01T08:08:43;2.90;18.00
13074;DHT22;6603;47.066;15.396;2023-03-01T08:11:14;2.90;1.00
13074;DHT22;6603;47.066;15.396;2023-03-01T08:13:42;3.00;1.00
13074;DHT22;6603;47.066;15.396;2023-03-01T08:16:14;3.00;99.90
13074;DHT22;6603;47.066;15.396;2023-03-01T08:18:40;2.90;1.00
13074;DHT22;6603;47.066;15.396;2023-03-01T08:21:10;2.80;1.00
13074;DHT22;6603;47.066;15.396;2023-03-01T08:23:37;2.90;59.90
13074;DHT22;6603;47.066;15.396;2023-03-01T08:26:16;3.10;1.00
13074;DHT22;6603;47.066;15.396;2023-03-01T08:28:43;3.00;1.00
13074;DHT22;6603;47.066;15.396;2023-03-01T08:33:40;3.10;99.90
13074;DHT22;6603;47.066;15.396;2023-03-01T08:36:06;3.20;99.90
13074;DHT22;6603;47.066;15.396;2023-03-01T08:38:34;3.30;99.90
13074;DHT22;6603;47.066;15.396;2023-03-01T08:41:02;3.30;99.90
13074;DHT22;6603;47.066;15.396;2023-03-01T08:43:29;3.30;99.90
13074;DHT22;6603;47.066;15.396;2023-03-01T08:45:55;3.40;99.90
13074;DHT22;6603;47.066;15.396;2023-03-01T08:48:21;3.50;99.90
13074;DHT22;6603;47.066;15.396;2023-03-01T08:50:47;3.50;99.90
13074;DHT22;6603;47.066;15.396;2023-03-01T08:53:13;3.60;77.40
13074;DHT22;6603;47.066;15.396;2023-03-01T08:55:39;3.60;87.10
13074;DHT22;6603;47.066;15.396;2023-03-01T08:58:05;3.60;99.90
13074;DHT22;6603;47.066;15.396;2023-03-01T09:00:31;3.60;1.00
13074;DHT22;6603;47.066;15.396;2023-03-01T09:03:00;3.40;1.00
13074;DHT22;6603;47.066;15.396;2023-03-01T09:05:26;3.50;1.00
13074;DHT22;6603;47.066;15.396;2023-03-01T09:07:52;3.80;1.00
13074;DHT22;6603;47.066;15.396;2023-03-01T09:10:18;3.90;1.00
13074;DHT22;6603;47.066;15.396;2023-03-01T09:12:44;3.90;99.90
13074;DHT22;6603;47.066;15.396;2023-03-01T09:15:10;3.80;99.90
13074;DHT22;6603;47.066;15.396;2023-03-01T09:17:36;3.80;99.90
13074;DHT22;6603;47.066;15.396;2023-03-01T09:20:02;3.90;1.00
13074;DHT22;6603;47.066;15.396;2023-03-01T09:22:33;3.90;1.00
13074;DHT22;6603;47.066;15.396;2023-03-01T09:25:00;4.00;1.00
13074;DHT22;6603;47.066;15.396;2023-03-01T09:27:26;4.10;1.00
13074;DHT22;6603;47.066;15.396;2023-03-01T09:29:52;4.20;1.00
13074;DHT22;6603;47.066;15.396;2023-03-01T09:32:18;4.30;1.00
13074;DHT22;6603;47.066;15.396;2023-03-01T09:34:45;4.20;1.00
13074;DHT22;6603;47.066;15.396;2023-03-01T09:37:31;4.10;1.00
13074;DHT22;6603;47.066;15.396;2023-03-01T09:39:57;4.10;1.00
13074;DHT22;6603;47.066;15.396;2023-03-01T09:42:24;4.20;1.00
13074;DHT22;6603;47.066;15.396;2023-03-01T09:47:32;4.10;99.90
13074;DHT22;6603;47.066;15.396;2023-03-01T09:52:35;4.20;99.90
13074;DHT22;6603;47.066;15.396;2023-03-01T09:55:25;4.30;85.60
13074;DHT22;6603;47.066;15.396;2023-03-01T10:00:43;4.20;1.00
13074;DHT22;6603;47.066;15.396;2023-03-01T10:06:23;4.20;1.00
13074;DHT22;6603;47.066;15.396;2023-03-01T10:09:02;4.20;1.00
13074;DHT22;6603;47.066;15.396;2023-03-01T10:11:36;4.30;99.90
13074;DHT22;6603;47.066;15.396;2023-03-01T10:14:07;4.20;99.90
13074;DHT22;6603;47.066;15.396;2023-03-01T10:16:50;4.30;1.00
13074;DHT22;6603;47.066;15.396;2023-03-01T10:24:39;4.30;99.90
13074;DHT22;6603;47.066;15.396;2023-03-01T10:27:17;4.30;99.90
13074;DHT22;6603;47.066;15.396;2023-03-01T10:29:59;4.20;99.90
13074;DHT22;6603;47.066;15.396;2023-03-01T10:32:28;4.10;1.00
13074;DHT22;6603;47.066;15.396;2023-03-01T10:34:55;4.20;1.00
13074;DHT22;6603;47.066;15.396;2023-03-01T10:37:23;4.30;1.00
13074;DHT22;6603;47.066;15.396;2023-03-01T10:40:01;4.30;1.00
13074;DHT22;6603;47.066;15.396;2023-03-01T10:42:39;4.40;1.00
13074;DHT22;6603;47.066;15.396;2023-03-01T10:50:42;4.20;1.00
13074;DHT22;6603;47.066;15.396;2023-03-01T10:56:00;4.10;99.90
13074;DHT22;6603;47.066;15.396;2023-03-01T10:58:27;4.10;1.00
13074;DHT22;6603;47.066;15.396;2023-03-01T11:03:27;4.00;1.00
13074;DHT22;6603;47.066;15.396;2023-03-01T11:08:33;3.90;1.00
13074;DHT22;6603;47.066;15.396;2023-03-01T11:11:31;3.80;1.00
13074;DHT22;6603;47.066;15.396;2023-03-01T11:16:41;4.00;1.00
13074;DHT22;6603;47.066;15.396;2023-03-01T11:21:47;4.00;1.00
13074;DHT22;6603;47.066;15.396;2023-03-01T11:24:17;4.10;99.90
13074;DHT22;6603;47.066;15.396;2023-03-01T11:26:52;4.10;1.00
13074;DHT22;6603;47.066;15.396;2023-03-01T11:31:59;4.40;1.00
13074;DHT22;6603;47.066;15.396;2023-03-01T11:34:48;4.40;1.00
13074;DHT22;6603;47.066;15.396;2023-03-01T11:37:32;4.30;1.00
13074;DHT22;6603;47.066;15.396;2023-03-01T11:40:10;4.60;1.00
13074;DHT22;6603;47.066;15.396;2023-03-01T11:45:24;4.80;1.00
13074;DHT22;6603;47.066;15.396;2023-03-01T11:51:02;5.00;1.00
13074;DHT22;6603;47.066;15.396;2023-03-01T12:02:34;5.20;99.90
13074;DHT22;6603;47.066;15.396;2023-03-01T12:05:06;5.20;99.90
13074;DHT22;6603;47.066;15.396;2023-03-01T12:19:33;5.50;99.90
13074;DHT22;6603;47.066;15.396;2023-03-01T12:27:32;6.00;99.90
13074;DHT22;6603;47.066;15.396;2023-03-01T12:30:32;6.00;99.90
13074;DHT22;6603;47.066;15.396;2023-03-01T12:36:22;6.00;1.00
13074;DHT22;6603;47.066;15.396;2023-03-01T12:42:05;6.00;99.90
13074;DHT22;6603;47.066;15.396;2023-03-01T12:50:21;6.10;99.90
13074;DHT22;6603;47.066;15.396;2023-03-01T12:55:33;6.30;99.90
13074;DHT22;6603;47.066;15.396;2023-03-01T13:01:15;6.10;1.00
13074;DHT22;6603;47.066;15.396;2023-03-01T13:06:35;6.40;1.00
13074;DHT22;6603;47.066;15.396;2023-03-01T13:09:39;6.50;1.00
13074;DHT22;6603;47.066;15.396;2023-03-01T13:15:30;6.30;1.00
13074;DHT22;6603;47.066;15.396;2023-03-01T13:26:16;6.60;1.00
13074;DHT22;6603;47.066;15.396;2023-03-01T13:28:51;6.60;1.00
13074;DHT22;6603;47.066;15.396;2023-03-01T13:33:53;6.70;99.90
13074;DHT22;6603;47.066;15.396;2023-03-01T15:28:48;5.30;1.00
13074;DHT22;6603;47.066;15.396;2023-03-01T15:31:24;5.40;1.00
13074;DHT22;6603;47.066;15.396;2023-03-01T15:33:52;5.40;1.00
13074;DHT22;6603;47.066;15.396;2023-03-01T15:36:40;5.40;1.00
13074;DHT22;6603;47.066;15.396;2023-03-01T15:41:59;5.30;1.00
13074;DHT22;6603;47.066;15.396;2023-03-01T15:44:36;5.40;1.00
13074;DHT22;6603;47.066;15.396;2023-03-01T15:47:23;5.40;1.00
13074;DHT22;6603;47.066;15.396;2023-03-01T15:49:52;5.20;1.00
13074;DHT22;6603;47.066;15.396;2023-03-01T15:52:29;5.20;1.00
13074;DHT22;6603;47.066;15.396;2023-03-01T15:54:58;5.10;1.00
13074;DHT22;6603;47.066;15.396;2023-03-01T15:57:24;5.10;1.00
13074;DHT22;6603;47.066;15.396;2023-03-01T15:59:50;5.20;1.00
13074;DHT22;6603;47.066;15.396;2023-03-01T16:02:16;5.10;1.00
13074;DHT22;6603;47.066;15.396;2023-03-01T16:04:42;5.10;1.00
13074;DHT22;6603;47.066;15.396;2023-03-01T16:07:09;5.10;1.00
13074;DHT22;6603;47.066;15.396;2023-03-01T16:09:35;5.00;1.00
13074;DHT22;6603;47.066;15.396;2023-03-01T16:12:01;5.00;1.00
13074;DHT22;6603;47.066;15.396;2023-03-01T16:14:27;4.90;1.00
13074;DHT22;6603;47.066;15.396;2023-03-01T16:16:53;4.90;1.00
13074;DHT22;6603;47.066;15.396;2023-03-01T16:19:19;4.90;1.00
13074;DHT22;6603;47.066;15.396;2023-03-01T16:21:45;4.90;1.00
13074;DHT22;6603;47.066;15.396;2023-03-01T16:24:13;4.90;18.30
13074;DHT22;6603;47.066;15.396;2023-03-01T16:26:39;4.90;1.00
13074;DHT22;6603;47.066;15.396;2023-03-01T16:29:05;4.90;23.10
13074;DHT22;6603;47.066;15.396;2023-03-01T16:31:31;4.90;37.30
13074;DHT22;6603;47.066;15.396;2023-03-01T16:33:58;4.80;33.40
13074;DHT22;6603;47.066;15.396;2023-03-01T16:36:26;4.90;39.90
13074;DHT22;6603;47.066;15.396;2023-03-01T16:38:54;4.90;29.80
13074;DHT22;6603;47.066;15.396;2023-03-01T16:41:22;4.80;35.20
13074;DHT22;6603;47.066;15.396;2023-03-01T16:43:49;4.80;27.60
13074;DHT22;6603;47.066;15.396;2023-03-01T16:46:26;4.80;22.60
13074;DHT22;6603;47.066;15.396;2023-03-01T16:48:54;4.80;44.10
13074;DHT22;6603;47.066;15.396;2023-03-01T16:51:22;4.80;71.70
13074;DHT22;6603;47.066;15.396;2023-03-01T16:53:49;4.80;88.80
13074;DHT22;6603;47.066;15.396;2023-03-01T16:56:15;4.80;82.60
13074;DHT22;6603;47.066;15.396;2023-03-01T16:58:42;4.80;78.30
13074;DHT22;6603;47.066;15.396;2023-03-01T17:01:10;4.80;76.00
13074;DHT22;6603;47.066;15.396;2023-03-01T17:03:37;4.70;93.50
13074;DHT22;6603;47.066;15.396;2023-03-01T17:06:04;4.70;99.90
13074;DHT22;6603;47.066;15.396;2023-03-01T17:08:31;4.60;99.90
13074;DHT22;6603;47.066;15.396;2023-03-01T17:11:18;4.50;99.90
13074;DHT22;6603;47.066;15.396;2023-03-01T17:13:45;4.50;99.90
13074;DHT22;6603;47.066;15.396;2023-03-01T17:16:13;4.50;99.90
13074;DHT22;6603;47.066;15.396;2023-03-01T17:18:40;4.40;99.90
13074;DHT22;6603;47.066;15.396;2023-03-01T17:21:07;4.50;99.90
13074;DHT22;6603;47.066;15.396;2023-03-01T17:23:34;4.50;99.90
13074;DHT22;6603;47.066;15.396;2023-03-01T17:26:01;4.50;99.90
13074;DHT22;6603;47.066;15.396;2023-03-01T17:28:29;4.50;99.90
13074;DHT22;6603;47.066;15.396;2023-03-01T17:30:56;4.40;99.90
13074;DHT22;6603;47.066;15.396;2023-03-01T17:33:21;4.30;99.90
13074;DHT22;6603;47.066;15.396;2023-03-01T17:35:49;4.30;99.90
13074;DHT22;6603;47.066;15.396;2023-03-01T17:38:15;4.40;99.90
13074;DHT22;6603;47.066;15.396;2023-03-01T17:40:42;4.40;99.90
13074;DHT22;6603;47.066;15.396;2023-03-01T17:43:11;4.50;99.90
13074;DHT22;6603;47.066;15.396;2023-03-01T17:45:38;4.50;99.90
13074;DHT22;6603;47.066;15.396;2023-03-01T17:48:05;4.40;99.90
13074;DHT22;6603;47.066;15.396;2023-03-01T17:50:31;4.30;99.90
13074;DHT22;6603;47.066;15.396;2023-03-01T17:52:57;4.30;99.90
13074;DHT22;6603;47.066;15.396;2023-03-01T17:55:23;4.30;99.90
13074;DHT22;6603;47.066;15.396;2023-03-01T17:57:49;4.40;99.90
13074;DHT22;6603;47.066;15.396;2023-03-01T18:00:16;4.40;99.90
13074;DHT22;6603;47.066;15.396;2023-03-01T18:02:43;4.30;99.90
13074;DHT22;6603;47.066;15.396;2023-03-01T18:05:09;4.20;99.90
13074;DHT22;6603;47.066;15.396;2023-03-01T18:07:36;4.20;99.90
13074;DHT22;6603;47.066;15.396;2023-03-01T18:10:02;4.20;99.90
13074;DHT22;6603;47.066;15.396;2023-03-01T18:12:30;4.10;99.90
13074;DHT22;6603;47.066;15.396;2023-03-01T18:14:58;4.20;99.90
13074;DHT22;6603;47.066;15.396;2023-03-01T18:17:24;4.20;99.90
13074;DHT22;6603;47.066;15.396;2023-03-01T18:19:50;4.20;99.90
13074;DHT22;6603;47.066;15.396;2023-03-01T18:22:16;4.30;99.90
13074;DHT22;6603;47.066;15.396;2023-03-01T18:24:42;4.30;99.90
13074;DHT22;6603;47.066;15.396;2023-03-01T18:27:09;4.30;99.90
13074;DHT22;6603;47.066;15.396;2023-03-01T18:29:38;4.30;99.90
13074;DHT22;6603;47.066;15.396;2023-03-01T18:32:04;4.30;99.90
13074;DHT22;6603;47.066;15.396;2023-03-01T18:34:30;4.30;99.90
13074;DHT22;6603;47.066;15.396;2023-03-01T18:36:56;4.30;99.90
13074;DHT22;6603;47.066;15.396;2023-03-01T18:39:23;4.30;99.90
13074;DHT22;6603;47.066;15.396;2023-03-01T18:41:49;4.20;99.90
13074;DHT22;6603;47.066;15.396;2023-03-01T18:44:15;4.20;99.90
13074;DHT22;6603;47.066;15.396;2023-03-01T18:46:42;4.30;99.90
13074;DHT22;6603;47.066;15.396;2023-03-01T18:49:12;4.30;99.90
13074;DHT22;6603;47.066;15.396;2023-03-01T18:51:40;4.20;99.90
13074;DHT22;6603;47.066;15.396;2023-03-01T18:54:06;4.20;99.90
13074;DHT22;6603;47.066;15.396;2023-03-01T18:56:33;4.30;99.90
13074;DHT22;6603;47.066;15.396;2023-03-01T18:59:00;4.30;99.90
13074;DHT22;6603;47.066;15.396;2023-03-01T19:01:29;4.30;99.90
13074;DHT22;6603;47.066;15.396;2023-03-01T19:03:56;4.30;99.90
13074;DHT22;6603;47.066;15.396;2023-03-01T19:06:26;4.30;99.90
13074;DHT22;6603;47.066;15.396;2023-03-01T19:08:53;4.20;99.90
13074;DHT22;6603;47.066;15.396;2023-03-01T19:11:19;4.10;99.90
13074;DHT22;6603;47.066;15.396;2023-03-01T19:13:46;4.10;99.90
13074;DHT22;6603;47.066;15.396;2023-03-01T19:16:16;4.10;99.90
13074;DHT22;6603;47.066;15.396;2023-03-01T19:18:44;4.10;99.90
13074;DHT22;6603;47.066;15.396;2023-03-01T19:21:21;4.00;99.90
13074;DHT22;6603;47.066;15.396;2023-03-01T19:23:48;4.00;99.90
13074;DHT22;6603;47.066;15.396;2023-03-01T19:26:16;4.00;99.90
13074;DHT22;6603;47.066;15.396;2023-03-01T19:28:42;4.00;99.90
13074;DHT22;6603;47.066;15.396;2023-03-01T19:31:15;3.90;99.90
13074;DHT22;6603;47.066;15.396;2023-03-01T19:33:42;3.80;99.90
13074;DHT22;6603;47.066;15.396;2023-03-01T19:36:10;3.80;99.90
13074;DHT22;6603;47.066;15.396;2023-03-01T19:38:38;3.90;99.90
13074;DHT22;6603;47.066;15.396;2023-03-01T19:41:06;3.90;99.90
13074;DHT22;6603;47.066;15.396;2023-03-01T19:43:32;4.00;99.90
13074;DHT22;6603;47.066;15.396;2023-03-01T19:45:59;4.00;99.90
13074;DHT22;6603;47.066;15.396;2023-03-01T19:48:25;4.00;99.90
13074;DHT22;6603;47.066;15.396;2023-03-01T19:50:52;4.00;99.90
13074;DHT22;6603;47.066;15.396;2023-03-01T19:53:18;3.80;99.90
13074;DHT22;6603;47.066;15.396;2023-03-01T19:55:45;3.80;99.90
13074;DHT22;6603;47.066;15.396;2023-03-01T19:58:11;3.70;99.90
13074;DHT22;6603;47.066;15.396;2023-03-01T20:00:39;3.60;99.90
13074;DHT22;6603;47.066;15.396;2023-03-01T20:03:05;3.60;99.90
13074;DHT22;6603;47.066;15.396;2023-03-01T20:05:36;3.50;99.90
13074;DHT22;6603;47.066;15.396;2023-03-01T20:08:03;3.50;99.90
13074;DHT22;6603;47.066;15.396;2023-03-01T20:10:32;3.60;99.90